createdAt,value
2023-04-17T00:00:32.963Z,21.75
2023-04-17T00:03:03.198Z,21.73
2023-04-17T00:05:34.847Z,21.70
2023-04-17T00:08:04.823Z,21.74
2023-04-17T00:10:35.240Z,21.73
2023-04-17T00:13:06.006Z,21.66
2023-04-17T00:15:37.444Z,21.59
2023-04-17T00:18:07.555Z,21.60
2023-04-17T00:20:38.034Z,21.55
2023-04-17T00:23:08.545Z,21.52
2023-04-17T00:25:39.037Z,21.33
2023-04-17T00:28:09.021Z,21.29
2023-04-17T00:30:39.493Z,21.30
2023-04-17T00:33:09.510Z,21.40
2023-04-17T00:35:39.981Z,21.45
2023-04-17T00:38:10.465Z,21.56
2023-04-17T00:40:41.090Z,21.66
2023-04-17T00:43:11.250Z,21.66
2023-04-17T00:45:41.844Z,21.62
2023-04-17T00:48:14.511Z,21.67
2023-04-17T00:50:45.784Z,21.67
2023-04-17T00:53:16.493Z,21.66
2023-04-17T00:55:49.992Z,21.53
2023-04-17T00:58:20.768Z,21.51
2023-04-17T01:00:52.357Z,21.38
2023-04-17T01:03:24.090Z,21.37
2023-04-17T01:05:54.354Z,21.36
2023-04-17T01:08:24.898Z,21.51
2023-04-17T01:10:54.879Z,21.56
2023-04-17T01:13:25.303Z,21.57
2023-04-17T01:15:55.137Z,21.63
2023-04-17T01:18:25.557Z,21.61
2023-04-17T01:20:55.593Z,21.60
2023-04-17T01:23:26.898Z,21.60
2023-04-17T01:25:56.962Z,21.50
2023-04-17T01:28:28.213Z,21.32
2023-04-17T01:30:58.285Z,21.20
2023-04-17T01:33:28.098Z,21.41
2023-04-17T01:35:59.310Z,21.56
2023-04-17T01:38:29.302Z,21.61
2023-04-17T01:40:59.659Z,21.65
2023-04-17T01:43:30.762Z,21.65
2023-04-17T01:46:00.841Z,21.73
2023-04-17T01:48:31.359Z,21.58
2023-04-17T01:51:02.260Z,21.33
2023-04-17T01:53:33.956Z,21.32
2023-04-17T01:56:04.250Z,21.35
2023-04-17T01:58:34.925Z,21.47
2023-04-17T02:01:05.037Z,21.64
2023-04-17T02:03:35.643Z,21.66
2023-04-17T02:06:05.961Z,21.70
2023-04-17T02:08:36.807Z,21.67
2023-04-17T02:11:07.266Z,21.65
2023-04-17T02:13:38.026Z,21.67
2023-04-17T02:16:08.759Z,21.66
2023-04-17T02:18:40.928Z,21.67
2023-04-17T02:21:11.086Z,21.65
2023-04-17T02:23:41.628Z,21.62
2023-04-17T02:26:12.261Z,21.42
2023-04-17T02:28:46.264Z,21.43
2023-04-17T02:31:17.657Z,21.44
2023-04-17T02:33:48.575Z,21.57
2023-04-17T02:36:19.306Z,21.66
2023-04-17T02:38:49.779Z,21.65
2023-04-17T02:41:19.880Z,21.58
2023-04-17T02:43:51.490Z,21.69
2023-04-17T02:46:21.698Z,21.82
2023-04-17T02:48:52.486Z,21.93
2023-04-17T02:51:24.304Z,21.93
2023-04-17T02:53:54.786Z,21.94
2023-04-17T02:56:24.813Z,21.84
2023-04-17T02:58:55.231Z,21.96
2023-04-17T03:01:25.438Z,22.07
2023-04-17T03:03:56.245Z,22.08
2023-04-17T03:06:27.931Z,22.04
2023-04-17T03:08:58.387Z,22.07
2023-04-17T03:11:28.417Z,22.06
2023-04-17T03:13:59.750Z,22.06
2023-04-17T03:16:30.594Z,22.10
2023-04-17T03:19:04.413Z,22.10
2023-04-17T03:21:34.468Z,22.11
2023-04-17T03:24:05.111Z,22.06
2023-04-17T03:26:35.176Z,22.06
2023-04-17T03:29:10.248Z,22.07
2023-04-17T03:31:40.480Z,22.13
2023-04-17T03:34:11.353Z,22.16
2023-04-17T03:36:41.796Z,22.17
2023-04-17T03:39:12.530Z,22.19
2023-04-17T03:41:42.694Z,22.17
2023-04-17T03:44:14.137Z,22.13
2023-04-17T03:46:45.086Z,22.08
2023-04-17T03:49:15.432Z,22.03
2023-04-17T03:51:46.285Z,22.00
2023-04-17T03:54:20.790Z,21.99
2023-04-17T03:56:52.918Z,22.01
2023-04-17T03:59:24.572Z,21.93
2023-04-17T04:01:55.393Z,21.89
2023-04-17T04:04:27.248Z,21.83
2023-04-17T04:07:07.952Z,21.84
2023-04-17T04:09:38.879Z,21.84
2023-04-17T04:12:10.249Z,21.82
2023-04-17T04:14:43.815Z,21.82
2023-04-17T04:17:15.733Z,21.72
2023-04-17T04:19:47.188Z,21.67
2023-04-17T04:22:17.826Z,21.67
2023-04-17T04:24:54.828Z,21.73
2023-04-17T04:27:34.056Z,21.75
2023-04-17T04:30:05.719Z,21.77
2023-04-17T04:32:39.121Z,21.74
2023-04-17T04:35:09.698Z,21.69
2023-04-17T04:37:40.254Z,21.77
2023-04-17T04:40:12.385Z,21.74
2023-04-17T04:42:50.636Z,21.76
2023-04-17T04:45:25.378Z,21.77
2023-04-17T04:47:56.564Z,21.72
2023-04-17T04:50:26.731Z,21.73
2023-04-17T04:52:57.396Z,21.81
2023-04-17T04:55:47.423Z,21.80
2023-04-17T04:58:17.933Z,21.76
2023-04-17T05:00:49.228Z,21.77
2023-04-17T05:03:27.589Z,21.76
2023-04-17T05:05:58.276Z,21.74
2023-04-17T05:08:35.501Z,21.75
2023-04-17T05:11:12.972Z,21.73
2023-04-17T05:13:43.716Z,21.73
2023-04-17T05:16:29.089Z,21.72
2023-04-17T05:19:00.617Z,21.72
2023-04-17T05:21:48.860Z,21.73
2023-04-17T05:24:21.674Z,21.70
2023-04-17T05:26:52.638Z,21.76
2023-04-17T05:29:23.122Z,21.77
2023-04-17T05:31:53.568Z,21.72
2023-04-17T05:34:50.346Z,21.72
2023-04-17T05:37:24.211Z,21.66
2023-04-17T05:39:54.727Z,21.69
2023-04-17T05:42:24.708Z,21.71
2023-04-17T05:44:55.255Z,21.72
2023-04-17T05:47:25.334Z,21.74
2023-04-17T05:49:59.236Z,21.73
2023-04-17T05:52:31.985Z,21.75
2023-04-17T05:55:02.143Z,21.75
2023-04-17T05:57:34.177Z,21.72
2023-04-17T06:00:11.593Z,21.72
2023-04-17T06:02:45.136Z,21.73
2023-04-17T06:05:22.981Z,21.72
2023-04-17T06:07:53.125Z,21.78
2023-04-17T06:10:24.497Z,21.77
2023-04-17T06:12:54.991Z,21.58
2023-04-17T06:15:25.301Z,21.59
2023-04-17T06:17:56.256Z,21.59
2023-04-17T06:20:27.335Z,21.63
2023-04-17T06:22:58.232Z,21.54
2023-04-17T06:25:28.674Z,21.60
2023-04-17T06:27:59.656Z,21.62
2023-04-17T06:30:29.947Z,21.49
2023-04-17T06:33:00.759Z,21.48
2023-04-17T06:35:30.830Z,21.54
2023-04-17T06:38:30.428Z,21.55
2023-04-17T06:41:00.542Z,21.57
2023-04-17T06:43:31.086Z,21.60
2023-04-17T06:46:08.737Z,21.59
2023-04-17T06:48:39.261Z,21.62
2023-04-17T06:51:09.115Z,21.60
2023-04-17T06:53:39.914Z,21.53
2023-04-17T06:56:10.038Z,21.58
2023-04-17T06:58:45.217Z,21.57
2023-04-17T07:01:15.994Z,21.52
2023-04-17T07:03:46.618Z,21.51
2023-04-17T07:06:16.821Z,21.57
2023-04-17T07:08:47.229Z,21.56
2023-04-17T07:11:17.208Z,21.60
2023-04-17T07:13:47.599Z,21.62
2023-04-17T07:16:17.746Z,21.62
2023-04-17T07:18:48.803Z,21.52
2023-04-17T07:21:19.315Z,21.57
2023-04-17T07:23:49.796Z,21.51
2023-04-17T07:26:19.818Z,21.50
2023-04-17T07:28:50.338Z,21.51
2023-04-17T07:31:20.200Z,21.44
2023-04-17T07:33:50.756Z,21.43
2023-04-17T07:36:20.778Z,21.42
2023-04-17T07:38:51.209Z,21.27
2023-04-17T07:41:21.523Z,21.23
2023-04-17T07:43:51.960Z,21.17
2023-04-17T07:46:22.197Z,21.10
2023-04-17T07:48:52.782Z,20.98
2023-04-17T07:51:22.831Z,20.91
2023-04-17T07:53:53.300Z,20.76
2023-04-17T07:56:23.629Z,20.77
2023-04-17T07:58:54.724Z,20.72
2023-04-17T08:01:24.834Z,20.62
2023-04-17T08:03:56.775Z,20.61
2023-04-17T08:06:27.755Z,20.64
2023-04-17T08:08:58.238Z,20.67
2023-04-17T08:11:28.292Z,20.62
2023-04-17T08:13:58.783Z,20.56
2023-04-17T08:16:29.215Z,20.57
2023-04-17T08:18:59.650Z,20.60
2023-04-17T08:21:29.691Z,20.59
2023-04-17T08:24:00.171Z,20.59
2023-04-17T08:26:30.244Z,20.61
2023-04-17T08:29:05.595Z,20.55
2023-04-17T08:31:37.962Z,20.55
2023-04-17T08:34:14.544Z,20.54
2023-04-17T08:36:45.742Z,20.57
2023-04-17T08:39:17.667Z,20.57
2023-04-17T08:42:02.039Z,20.64
2023-04-17T08:44:32.685Z,20.60
2023-04-17T08:47:05.026Z,20.60
2023-04-17T08:49:36.802Z,20.67
2023-04-17T08:52:09.219Z,20.64
2023-04-17T08:54:40.647Z,20.67
2023-04-17T08:57:10.746Z,20.68
2023-04-17T08:59:43.114Z,20.64
2023-04-17T09:02:14.101Z,20.61
2023-04-17T09:04:46.571Z,20.58
2023-04-17T09:07:19.576Z,20.54
2023-04-17T09:09:54.537Z,20.51
2023-04-17T09:12:26.554Z,20.54
2023-04-17T09:14:57.082Z,20.57
2023-04-17T09:17:35.931Z,20.57
2023-04-17T09:20:10.216Z,20.55
2023-04-17T09:22:42.519Z,20.57
2023-04-17T09:25:24.742Z,20.53
2023-04-17T09:27:54.812Z,20.52
2023-04-17T09:30:28.161Z,20.48
2023-04-17T09:33:08.348Z,20.42
2023-04-17T09:35:43.081Z,20.43
2023-04-17T09:38:13.154Z,20.42
2023-04-17T09:40:46.241Z,20.37
2023-04-17T09:43:16.668Z,20.41
2023-04-17T09:45:47.510Z,20.41
2023-04-17T09:48:18.103Z,20.37
2023-04-17T09:50:49.122Z,20.43
2023-04-17T09:53:21.553Z,20.44
2023-04-17T09:55:54.329Z,20.45
2023-04-17T09:58:24.652Z,20.48
2023-04-17T10:00:55.123Z,20.56
2023-04-17T10:03:25.693Z,20.44
2023-04-17T10:05:56.384Z,20.45
2023-04-17T10:08:26.586Z,20.50
2023-04-17T10:11:08.933Z,20.51
2023-04-17T10:13:41.753Z,20.56
2023-04-17T10:16:12.959Z,20.61
2023-04-17T10:18:43.123Z,20.67
2023-04-17T10:21:26.356Z,20.71
2023-04-17T10:23:56.475Z,20.63
2023-04-17T10:26:26.816Z,20.56
2023-04-17T10:29:00.809Z,20.52
2023-04-17T10:32:08.364Z,20.55
2023-04-17T10:34:43.856Z,20.57
2023-04-17T10:37:18.272Z,20.53
2023-04-17T10:39:55.389Z,20.53
2023-04-17T10:42:27.002Z,20.56
2023-04-17T10:45:07.103Z,20.49
2023-04-17T10:47:39.004Z,20.55
2023-04-17T10:50:11.314Z,20.52
2023-04-17T10:52:45.826Z,20.52
2023-04-17T10:55:18.481Z,20.49
2023-04-17T10:57:57.924Z,20.51
2023-04-17T11:00:51.257Z,20.51
2023-04-17T11:03:25.185Z,20.54
2023-04-17T11:05:56.183Z,20.59
2023-04-17T11:08:26.816Z,20.57
2023-04-17T11:11:00.032Z,20.61
2023-04-17T11:13:34.959Z,20.60
2023-04-17T11:16:08.610Z,20.67
2023-04-17T11:18:39.864Z,20.64
2023-04-17T11:21:13.259Z,20.56
2023-04-17T11:23:55.061Z,20.52
2023-04-17T11:26:25.070Z,20.51
2023-04-17T11:28:55.235Z,20.55
2023-04-17T11:31:26.035Z,20.60
2023-04-17T11:33:58.652Z,20.64
2023-04-17T11:36:29.221Z,20.73
2023-04-17T11:38:59.382Z,20.77
2023-04-17T11:41:39.875Z,20.77
2023-04-17T11:44:17.016Z,20.78
2023-04-17T11:47:00.711Z,20.89
2023-04-17T11:49:39.155Z,20.89
2023-04-17T11:52:09.589Z,20.95
2023-04-17T11:54:42.534Z,20.86
2023-04-17T11:57:14.727Z,20.83
2023-04-17T11:59:46.591Z,20.89
2023-04-17T12:02:17.954Z,20.98
2023-04-17T12:04:48.375Z,20.96
2023-04-17T12:07:26.020Z,21.02
2023-04-17T12:09:59.449Z,21.06
2023-04-17T12:12:30.653Z,21.13
2023-04-17T12:15:00.701Z,21.14
2023-04-17T12:17:31.864Z,21.22
2023-04-17T12:20:05.214Z,21.06
2023-04-17T12:22:35.610Z,21.09
2023-04-17T12:25:06.964Z,21.19
2023-04-17T12:27:38.728Z,21.23
2023-04-17T12:30:09.296Z,21.20
2023-04-17T12:32:40.836Z,21.18
2023-04-17T12:35:11.263Z,21.25
2023-04-17T12:37:41.936Z,21.21
2023-04-17T12:40:12.123Z,21.27
2023-04-17T12:42:49.165Z,21.25
2023-04-17T12:45:20.227Z,21.34
2023-04-17T12:47:53.992Z,21.42
2023-04-17T12:50:24.381Z,21.37
2023-04-17T12:52:54.923Z,21.48
2023-04-17T12:55:27.296Z,21.62
2023-04-17T12:57:57.797Z,21.73
2023-04-17T13:00:27.904Z,21.81
2023-04-17T13:02:58.667Z,21.73
2023-04-17T13:05:32.384Z,21.73
2023-04-17T13:08:03.128Z,21.68
2023-04-17T13:10:33.216Z,21.69
2023-04-17T13:13:05.815Z,21.74
2023-04-17T13:15:36.399Z,21.72
2023-04-17T13:18:06.987Z,21.80
2023-04-17T13:20:37.029Z,21.94
2023-04-17T13:23:07.673Z,21.84
2023-04-17T13:25:37.963Z,21.82
2023-04-17T13:28:08.488Z,21.90
2023-04-17T13:30:38.815Z,21.92
2023-04-17T13:33:09.369Z,22.08
2023-04-17T13:35:39.243Z,21.96
2023-04-17T13:38:09.736Z,21.94
2023-04-17T13:40:39.879Z,22.09
2023-04-17T13:43:10.449Z,22.19
2023-04-17T13:45:40.302Z,22.48
2023-04-17T13:48:10.806Z,22.56
2023-04-17T13:50:40.952Z,22.67
2023-04-17T13:53:13.285Z,22.58
2023-04-17T13:55:43.531Z,22.77
2023-04-17T13:58:14.062Z,22.89
2023-04-17T14:00:44.137Z,23.00
2023-04-17T14:03:14.942Z,23.50
2023-04-17T14:05:45.134Z,24.31
2023-04-17T14:08:15.634Z,25.27
2023-04-17T14:10:45.731Z,24.69
2023-04-17T14:13:16.908Z,24.81
2023-04-17T14:15:48.689Z,24.57
2023-04-17T14:18:19.217Z,24.58
2023-04-17T14:20:49.390Z,25.26
2023-04-17T14:23:20.085Z,25.42
2023-04-17T14:25:52.902Z,25.43
2023-04-17T14:28:24.363Z,25.71
2023-04-17T14:30:54.464Z,25.88
2023-04-17T14:33:25.440Z,26.19
2023-04-17T14:35:57.780Z,25.99
2023-04-17T14:38:28.425Z,25.56
2023-04-17T14:40:58.436Z,25.16
2023-04-17T14:43:29.039Z,25.06
2023-04-17T14:45:59.260Z,24.63
2023-04-17T14:48:32.712Z,24.39
2023-04-17T14:51:04.929Z,24.23
2023-04-17T14:53:35.369Z,24.06
2023-04-17T14:56:05.699Z,24.13
2023-04-17T14:58:36.986Z,24.43
2023-04-17T15:01:07.114Z,24.57
2023-04-17T15:03:37.882Z,24.83
2023-04-17T15:06:08.125Z,25.19
2023-04-17T15:08:38.765Z,25.18
2023-04-17T15:11:08.852Z,25.37
2023-04-17T15:13:41.504Z,25.37
2023-04-17T15:16:11.924Z,25.52
2023-04-17T15:18:42.447Z,25.54
2023-04-17T15:21:12.801Z,25.78
2023-04-17T15:23:43.247Z,25.83
2023-04-17T15:26:15.045Z,26.12
2023-04-17T15:28:45.827Z,27.28
2023-04-17T15:31:15.742Z,28.00
2023-04-17T15:33:48.448Z,27.98
2023-04-17T15:36:18.984Z,27.16
2023-04-17T15:38:49.078Z,26.84
2023-04-17T15:41:19.503Z,26.28
2023-04-17T15:43:49.500Z,25.60
2023-04-17T15:46:20.176Z,25.19
2023-04-17T15:49:01.219Z,25.12
2023-04-17T15:51:40.281Z,25.61
2023-04-17T15:54:13.099Z,25.74
2023-04-17T15:56:43.514Z,25.71
2023-04-17T15:59:13.925Z,26.13
2023-04-17T16:01:45.087Z,26.33
2023-04-17T16:04:15.879Z,26.65
2023-04-17T16:06:46.910Z,27.30
2023-04-17T16:09:21.030Z,27.05
2023-04-17T16:11:54.517Z,26.92
2023-04-17T16:14:24.686Z,26.79
2023-04-17T16:16:55.101Z,26.63
2023-04-17T16:19:25.774Z,26.75
2023-04-17T16:21:57.837Z,26.65
2023-04-17T16:24:28.320Z,26.38
2023-04-17T16:27:01.206Z,26.22
2023-04-17T16:29:31.423Z,25.65
2023-04-17T16:32:01.897Z,25.21
2023-04-17T16:34:31.828Z,24.80
2023-04-17T16:37:04.440Z,24.38
2023-04-17T16:39:34.427Z,24.05
2023-04-17T16:42:04.940Z,23.65
2023-04-17T16:44:34.794Z,23.50
2023-04-17T16:47:13.549Z,23.36
2023-04-17T16:49:44.684Z,23.11
2023-04-17T16:52:15.170Z,22.99
2023-04-17T16:54:45.163Z,22.99
2023-04-17T16:57:15.866Z,22.97
2023-04-17T16:59:45.881Z,23.04
2023-04-17T17:02:16.534Z,23.11
2023-04-17T17:04:47.298Z,23.33
2023-04-17T17:07:17.818Z,23.81
2023-04-17T17:09:47.852Z,24.33
2023-04-17T17:12:18.262Z,24.94
2023-04-17T17:14:48.312Z,25.30
2023-04-17T17:17:18.750Z,25.14
2023-04-17T17:19:48.757Z,24.67
2023-04-17T17:22:19.286Z,24.15
2023-04-17T17:24:49.324Z,23.84
2023-04-17T17:27:19.842Z,23.40
2023-04-17T17:29:49.830Z,23.05
2023-04-17T17:32:20.761Z,22.70
2023-04-17T17:34:52.462Z,22.60
2023-04-17T17:37:22.897Z,22.21
2023-04-17T17:39:52.911Z,21.71
2023-04-17T17:42:23.365Z,21.28
2023-04-17T17:44:53.452Z,21.02
2023-04-17T17:47:23.993Z,20.70
2023-04-17T17:49:54.113Z,20.46
2023-04-17T17:52:24.548Z,20.48
2023-04-17T17:54:55.021Z,20.38
2023-04-17T17:57:29.130Z,20.14
2023-04-17T18:00:03.951Z,20.05
2023-04-17T18:02:34.593Z,20.05
2023-04-17T18:05:05.388Z,20.04
2023-04-17T18:07:35.457Z,19.97
2023-04-17T18:10:06.201Z,20.05
2023-04-17T18:12:36.218Z,20.21
2023-04-17T18:15:06.509Z,20.18
2023-04-17T18:17:37.002Z,20.13
2023-04-17T18:20:07.498Z,20.41
2023-04-17T18:22:39.464Z,20.52
2023-04-17T18:25:09.862Z,20.60
2023-04-17T18:27:41.235Z,20.73
2023-04-17T18:30:13.590Z,20.64
2023-04-17T18:32:45.040Z,20.59
2023-04-17T18:35:16.003Z,20.42
2023-04-17T18:37:46.523Z,20.51
2023-04-17T18:40:16.681Z,20.54
2023-04-17T18:42:47.136Z,20.47
2023-04-17T18:45:17.269Z,20.54
2023-04-17T18:47:47.729Z,20.48
2023-04-17T18:50:17.898Z,20.56
2023-04-17T18:52:51.147Z,20.53
2023-04-17T18:55:21.600Z,20.68
2023-04-17T18:57:52.083Z,20.68
2023-04-17T19:00:22.163Z,20.81
2023-04-17T19:02:52.718Z,20.78
2023-04-17T19:05:23.136Z,20.75
2023-04-17T19:07:53.603Z,20.75
2023-04-17T19:10:24.223Z,20.79
2023-04-17T19:12:54.622Z,20.91
2023-04-17T19:15:25.446Z,20.98
2023-04-17T19:17:58.126Z,20.91
2023-04-17T19:20:29.070Z,20.90
2023-04-17T19:23:02.109Z,20.86
2023-04-17T19:25:32.986Z,20.78
2023-04-17T19:28:05.393Z,20.90
2023-04-17T19:30:35.698Z,20.92
2023-04-17T19:33:06.214Z,20.91
2023-04-17T19:35:36.598Z,21.00
2023-04-17T19:38:07.267Z,21.08
2023-04-17T19:40:37.407Z,21.11
2023-04-17T19:43:07.814Z,21.17
2023-04-17T19:45:37.883Z,21.13
2023-04-17T19:48:08.462Z,21.16
2023-04-17T19:50:38.481Z,21.09
2023-04-17T19:53:08.948Z,21.09
2023-04-17T19:55:39.134Z,21.15
2023-04-17T19:58:10.107Z,21.06
2023-04-17T20:00:41.665Z,21.14
2023-04-17T20:03:12.562Z,21.06
2023-04-17T20:05:42.686Z,20.89
2023-04-17T20:08:13.116Z,20.93
2023-04-17T20:10:43.149Z,21.06
2023-04-17T20:13:13.679Z,21.06
2023-04-17T20:15:43.857Z,21.05
2023-04-17T20:18:14.530Z,20.92
2023-04-17T20:20:44.642Z,20.86
2023-04-17T20:23:14.482Z,20.78
2023-04-17T20:25:45.054Z,20.75
2023-04-17T20:28:15.160Z,20.62
2023-04-17T20:30:45.682Z,20.60
2023-04-17T20:33:15.537Z,20.61
2023-04-17T20:35:46.669Z,20.57
2023-04-17T20:38:16.571Z,20.60
2023-04-17T20:40:47.131Z,20.57
2023-04-17T20:43:18.051Z,20.52
2023-04-17T20:45:49.637Z,20.46
2023-04-17T20:48:20.861Z,20.40
2023-04-17T20:50:51.453Z,20.35
2023-04-17T20:53:21.546Z,20.37
2023-04-17T20:55:52.214Z,20.41
2023-04-17T20:58:22.285Z,20.36
2023-04-17T21:01:00.716Z,20.10
2023-04-17T21:03:32.397Z,19.93
2023-04-17T21:06:03.081Z,19.83
2023-04-17T21:08:33.095Z,19.94
2023-04-17T21:11:03.608Z,19.65
2023-04-17T21:13:33.581Z,19.66
2023-04-17T21:16:04.057Z,19.86
2023-04-17T21:18:34.166Z,19.94
2023-04-17T21:21:04.625Z,20.05
2023-04-17T21:23:34.689Z,19.90
2023-04-17T21:26:06.051Z,19.95
2023-04-17T21:28:38.964Z,19.89
2023-04-17T21:31:11.438Z,19.80
2023-04-17T21:33:41.435Z,19.57
2023-04-17T21:36:12.065Z,19.59
2023-04-17T21:38:42.041Z,19.48
2023-04-17T21:41:12.515Z,19.46
2023-04-17T21:43:42.497Z,19.52
2023-04-17T21:46:13.421Z,19.49
2023-04-17T21:48:43.487Z,19.44
2023-04-17T21:51:13.922Z,19.40
2023-04-17T21:53:45.137Z,19.54
2023-04-17T21:56:15.728Z,19.54
2023-04-17T21:58:45.919Z,19.64
2023-04-17T22:01:16.687Z,19.59
2023-04-17T22:03:46.667Z,19.53
2023-04-17T22:06:17.314Z,19.27
2023-04-17T22:08:47.471Z,19.28
2023-04-17T22:11:17.933Z,19.21
2023-04-17T22:13:48.144Z,19.18
2023-04-17T22:16:18.665Z,19.04
2023-04-17T22:18:48.657Z,18.96
2023-04-17T22:21:19.108Z,18.93
2023-04-17T22:23:49.084Z,18.97
2023-04-17T22:26:19.512Z,19.30
2023-04-17T22:28:49.534Z,19.47
2023-04-17T22:31:20.150Z,19.47
2023-04-17T22:33:50.179Z,19.39
2023-04-17T22:36:20.637Z,19.25
2023-04-17T22:38:50.685Z,19.18
2023-04-17T22:41:21.125Z,19.02
2023-04-17T22:43:51.521Z,18.85
2023-04-17T22:46:22.104Z,18.72
2023-04-17T22:48:52.153Z,18.64
2023-04-17T22:51:22.663Z,18.34
2023-04-17T22:53:52.657Z,18.21
2023-04-17T22:56:23.166Z,18.37
2023-04-17T22:58:53.326Z,18.49
2023-04-17T23:01:23.800Z,18.50
2023-04-17T23:03:53.803Z,18.52
2023-04-17T23:06:27.224Z,18.61
2023-04-17T23:08:58.396Z,18.55
2023-04-17T23:11:28.880Z,18.51
2023-04-17T23:13:58.954Z,18.51
2023-04-17T23:16:31.598Z,18.60
2023-04-17T23:19:01.726Z,18.71
2023-04-17T23:21:32.532Z,18.77
2023-04-17T23:24:02.546Z,18.60
2023-04-17T23:26:32.998Z,18.69
2023-04-17T23:29:02.985Z,18.87
2023-04-17T23:31:33.586Z,18.89
2023-04-17T23:34:03.707Z,18.71
2023-04-17T23:36:34.218Z,18.77
2023-04-17T23:39:04.601Z,18.65
2023-04-17T23:41:36.102Z,18.53
2023-04-17T23:44:06.215Z,18.65
2023-04-17T23:46:36.076Z,18.67
2023-04-17T23:49:07.099Z,18.57
2023-04-17T23:51:37.170Z,18.84
2023-04-17T23:54:09.002Z,18.96
2023-04-17T23:56:39.007Z,19.03
2023-04-17T23:59:09.430Z,18.88
